createdAt,value
2022-08-19T00:00:00.026Z,1001.30
2022-08-19T00:01:00.014Z,1001.27
2022-08-19T00:02:00.180Z,1001.26
2022-08-19T00:03:00.005Z,1001.31
2022-08-19T00:04:00.005Z,1001.34
2022-08-19T00:05:00.028Z,1001.35
2022-08-19T00:05:59.984Z,1001.39
2022-08-19T00:06:59.973Z,1001.45
2022-08-19T00:07:59.965Z,1001.45
2022-08-19T00:08:59.974Z,1001.49
2022-08-19T00:09:59.953Z,1001.54
2022-08-19T00:10:59.954Z,1001.52
2022-08-19T00:11:59.943Z,1001.52
2022-08-19T00:12:59.940Z,1001.52
2022-08-19T00:13:59.934Z,1001.53
2022-08-19T00:14:59.925Z,1001.51
2022-08-19T00:15:59.914Z,1001.52
2022-08-19T00:16:59.904Z,1001.52
2022-08-19T00:17:59.903Z,1001.46
2022-08-19T00:18:59.923Z,1001.51
2022-08-19T00:19:59.886Z,1001.52
2022-08-19T00:20:59.883Z,1001.51
2022-08-19T00:21:59.873Z,1001.52
2022-08-19T00:22:59.872Z,1001.49
2022-08-19T00:23:59.872Z,1001.47
2022-08-19T00:24:59.852Z,1001.49
2022-08-19T00:25:59.844Z,1001.56
2022-08-19T00:27:25.294Z,1001.47
2022-08-19T00:27:59.841Z,1001.52
2022-08-19T00:28:59.843Z,1001.53
2022-08-19T00:29:59.833Z,1001.49
2022-08-19T00:30:59.839Z,1001.52
2022-08-19T00:31:59.802Z,1001.51
2022-08-19T00:32:59.801Z,1001.43
2022-08-19T00:33:59.810Z,1001.47
2022-08-19T00:34:59.800Z,1001.38
2022-08-19T00:35:59.781Z,1001.41
2022-08-19T00:36:59.779Z,1001.33
2022-08-19T00:37:59.781Z,1001.41
2022-08-19T00:38:59.763Z,1001.37
2022-08-19T00:39:59.808Z,1001.40
2022-08-19T00:40:59.752Z,1001.51
2022-08-19T00:41:59.745Z,1001.52
2022-08-19T00:42:59.759Z,1001.52
2022-08-19T00:43:59.729Z,1001.52
2022-08-19T00:44:59.722Z,1001.49
2022-08-19T00:45:59.711Z,1001.45
2022-08-19T00:46:59.711Z,1001.44
2022-08-19T00:47:59.752Z,1001.47
2022-08-19T00:48:59.692Z,1001.49
2022-08-19T00:49:59.680Z,1001.47
2022-08-19T00:50:59.683Z,1001.47
2022-08-19T00:51:59.670Z,1001.46
2022-08-19T00:52:59.670Z,1001.52
2022-08-19T00:53:59.667Z,1001.50
2022-08-19T00:54:59.650Z,1001.56
2022-08-19T00:55:59.731Z,1001.55
2022-08-19T00:56:59.642Z,1001.57
2022-08-19T00:57:59.651Z,1001.57
2022-08-19T00:58:59.622Z,1001.60
2022-08-19T01:00:02.412Z,1001.49
2022-08-19T01:00:59.609Z,1001.41
2022-08-19T01:01:59.694Z,1001.53
2022-08-19T01:02:59.619Z,1001.53
2022-08-19T01:03:59.597Z,1001.37
2022-08-19T01:04:59.590Z,1001.42
2022-08-19T01:05:59.579Z,1001.33
2022-08-19T01:06:59.578Z,1001.38
2022-08-19T01:07:59.578Z,1001.37
2022-08-19T01:08:59.569Z,1001.38
2022-08-19T01:09:59.548Z,1001.34
2022-08-19T01:10:59.543Z,1001.33
2022-08-19T01:11:59.543Z,1001.40
2022-08-19T01:12:59.624Z,1001.38
2022-08-19T01:13:59.538Z,1001.41
2022-08-19T01:14:59.540Z,1001.39
2022-08-19T01:15:59.549Z,1001.39
2022-08-19T01:16:59.528Z,1001.37
2022-08-19T01:17:59.529Z,1001.37
2022-08-19T01:18:59.507Z,1001.37
2022-08-19T01:19:59.478Z,1001.33
2022-08-19T01:20:59.478Z,1001.34
2022-08-19T01:21:59.468Z,1001.35
2022-08-19T01:22:59.458Z,1001.38
2022-08-19T01:23:59.458Z,1001.33
2022-08-19T01:24:59.489Z,1001.36
2022-08-19T01:25:59.447Z,1001.37
2022-08-19T01:26:59.458Z,1001.38
2022-08-19T01:28:06.434Z,1001.39
2022-08-19T01:29:00.844Z,1001.37
2022-08-19T01:29:59.427Z,1001.34
2022-08-19T01:30:59.407Z,1001.36
2022-08-19T01:31:59.398Z,1001.32
2022-08-19T01:32:59.396Z,1001.27
2022-08-19T01:33:59.396Z,1001.27
2022-08-19T01:34:59.386Z,1001.28
2022-08-19T01:35:59.366Z,1001.25
2022-08-19T01:36:59.377Z,1001.20
2022-08-19T01:37:59.375Z,1001.18
2022-08-19T01:38:59.376Z,1001.18
2022-08-19T01:39:59.434Z,1001.14
2022-08-19T01:40:59.343Z,1001.12
2022-08-19T01:41:59.328Z,1001.13
2022-08-19T01:42:59.328Z,1001.10
2022-08-19T01:44:13.665Z,1001.13
2022-08-19T01:44:59.336Z,1001.12
2022-08-19T01:45:59.307Z,1001.10
2022-08-19T01:46:59.307Z,1001.14
2022-08-19T01:48:01.987Z,1001.12
2022-08-19T01:48:59.297Z,1001.13
2022-08-19T01:49:59.284Z,1001.11
2022-08-19T01:50:59.275Z,1001.18
2022-08-19T01:51:59.265Z,1001.19
2022-08-19T01:53:06.210Z,1001.23
2022-08-19T01:53:59.295Z,1001.20
2022-08-19T01:54:59.257Z,1001.17
2022-08-19T01:55:59.234Z,1001.13
2022-08-19T01:56:59.240Z,1001.16
2022-08-19T01:57:59.254Z,1001.11
2022-08-19T01:58:59.236Z,1001.09
2022-08-19T01:59:59.206Z,1001.08
2022-08-19T02:00:59.264Z,1001.11
2022-08-19T02:01:59.194Z,1001.14
2022-08-19T02:02:59.197Z,1001.11
2022-08-19T02:03:59.213Z,1001.10
2022-08-19T02:04:59.184Z,1001.13
2022-08-19T02:05:59.163Z,1001.18
2022-08-19T02:06:59.166Z,1001.10
2022-08-19T02:07:59.155Z,1001.07
2022-08-19T02:08:59.191Z,1001.06
2022-08-19T02:09:59.154Z,1001.05
2022-08-19T02:10:59.143Z,1001.03
2022-08-19T02:11:59.194Z,1001.03
2022-08-19T02:12:59.124Z,1001.00
2022-08-19T02:13:59.143Z,1001.03
2022-08-19T02:14:59.142Z,1000.99
2022-08-19T02:15:59.103Z,1000.96
2022-08-19T02:16:59.101Z,1001.05
2022-08-19T02:17:59.084Z,1000.98
2022-08-19T02:18:59.103Z,1000.96
2022-08-19T02:19:59.103Z,1000.96
2022-08-19T02:20:59.069Z,1000.93
2022-08-19T02:21:59.065Z,1000.90
2022-08-19T02:22:59.052Z,1000.92
2022-08-19T02:23:59.104Z,1000.92
2022-08-19T02:24:59.074Z,1000.96
2022-08-19T02:25:59.045Z,1000.97
2022-08-19T02:26:59.052Z,1000.97
2022-08-19T02:27:59.032Z,1000.99
2022-08-19T02:28:59.024Z,1001.05
2022-08-19T02:29:59.027Z,1001.00
2022-08-19T02:30:59.011Z,1000.99
2022-08-19T02:31:59.001Z,1001.07
2022-08-19T02:32:59.287Z,1001.04
2022-08-19T02:33:58.990Z,1001.08
2022-08-19T02:34:58.990Z,1001.03
2022-08-19T02:35:58.970Z,1001.04
2022-08-19T02:37:03.464Z,1001.04
2022-08-19T02:37:58.950Z,1001.01
2022-08-19T02:38:58.961Z,1001.02
2022-08-19T02:39:59.712Z,1001.02
2022-08-19T02:40:58.939Z,1001.04
2022-08-19T02:41:59.012Z,1001.03
2022-08-19T02:42:58.919Z,1001.04
2022-08-19T02:44:26.695Z,1001.04
2022-08-19T02:44:58.900Z,1001.04
2022-08-19T02:45:58.899Z,1001.09
2022-08-19T02:46:58.901Z,1001.05
2022-08-19T02:47:58.900Z,1001.04
2022-08-19T02:48:58.942Z,1001.01
2022-08-19T02:49:58.879Z,1001.00
2022-08-19T02:50:59.080Z,1000.99
2022-08-19T02:51:59.440Z,1001.01
2022-08-19T02:52:58.857Z,1000.96
2022-08-19T02:53:58.864Z,1000.98
2022-08-19T02:54:58.859Z,1001.01
2022-08-19T02:55:58.850Z,1001.00
2022-08-19T02:56:58.853Z,1001.03
2022-08-19T02:57:58.820Z,1001.02
2022-08-19T02:58:58.829Z,1000.99
2022-08-19T02:59:58.818Z,1000.97
2022-08-19T03:00:58.837Z,1000.99
2022-08-19T03:01:58.797Z,1000.96
2022-08-19T03:02:58.839Z,1000.96
2022-08-19T03:03:58.789Z,1000.97
2022-08-19T03:04:58.768Z,1000.95
2022-08-19T03:05:58.786Z,1000.95
2022-08-19T03:07:07.204Z,1000.99
2022-08-19T03:07:58.758Z,1001.04
2022-08-19T03:08:58.757Z,1001.02
2022-08-19T03:09:58.750Z,1001.00
2022-08-19T03:10:58.736Z,1001.01
2022-08-19T03:11:58.728Z,1001.06
2022-08-19T03:12:58.718Z,1001.03
2022-08-19T03:13:58.709Z,1001.02
2022-08-19T03:14:58.715Z,1001.05
2022-08-19T03:15:58.697Z,1001.04
2022-08-19T03:16:58.686Z,1001.04
2022-08-19T03:17:58.690Z,1001.02
2022-08-19T03:18:58.690Z,1001.01
2022-08-19T03:19:58.699Z,1001.08
2022-08-19T03:20:58.679Z,1001.08
2022-08-19T03:21:59.029Z,1001.11
2022-08-19T03:22:58.660Z,1001.12
2022-08-19T03:23:59.140Z,1001.09
2022-08-19T03:24:58.663Z,1001.04
2022-08-19T03:26:15.617Z,1001.06
2022-08-19T03:26:58.646Z,1001.03
2022-08-19T03:27:58.639Z,1001.05
2022-08-19T03:28:59.055Z,1000.99
2022-08-19T03:29:58.678Z,1001.05
2022-08-19T03:30:58.608Z,1001.11
2022-08-19T03:31:58.599Z,1001.11
2022-08-19T03:32:58.706Z,1001.18
2022-08-19T03:33:58.595Z,1001.15
2022-08-19T03:34:58.597Z,1001.13
2022-08-19T03:35:58.597Z,1001.13
2022-08-19T03:36:58.566Z,1001.21
2022-08-19T03:37:58.574Z,1001.18
2022-08-19T03:38:59.872Z,1001.20
2022-08-19T03:39:58.664Z,1001.22
2022-08-19T03:40:58.538Z,1001.25
2022-08-19T03:42:32.362Z,1001.19
2022-08-19T03:42:58.927Z,1001.22
2022-08-19T03:43:58.538Z,1001.25
2022-08-19T03:44:58.656Z,1001.27
2022-08-19T03:45:58.817Z,1001.26
2022-08-19T03:46:58.976Z,1001.33
2022-08-19T03:47:58.500Z,1001.25
2022-08-19T03:48:59.089Z,1001.27
2022-08-19T03:49:58.497Z,1001.27
2022-08-19T03:50:59.207Z,1001.27
2022-08-19T03:51:58.475Z,1001.28
2022-08-19T03:52:58.467Z,1001.29
2022-08-19T03:53:58.454Z,1001.29
2022-08-19T03:54:59.128Z,1001.33
2022-08-19T03:55:58.445Z,1001.31
2022-08-19T03:56:58.428Z,1001.33
2022-08-19T03:57:59.446Z,1001.35
2022-08-19T03:58:59.154Z,1001.40
2022-08-19T04:00:03.958Z,1001.38
2022-08-19T04:00:58.418Z,1001.40
2022-08-19T04:01:58.763Z,1001.46
2022-08-19T04:03:00.897Z,1001.47
2022-08-19T04:03:58.482Z,1001.50
2022-08-19T04:04:58.384Z,1001.45
2022-08-19T04:05:58.595Z,1001.48
2022-08-19T04:06:58.594Z,1001.48
2022-08-19T04:07:58.704Z,1001.43
2022-08-19T04:08:58.714Z,1001.42
2022-08-19T04:09:58.823Z,1001.40
2022-08-19T04:10:58.344Z,1001.40
2022-08-19T04:11:58.333Z,1001.38
2022-08-19T04:12:58.323Z,1001.36
2022-08-19T04:13:58.326Z,1001.38
2022-08-19T04:14:58.323Z,1001.40
2022-08-19T04:15:58.313Z,1001.37
2022-08-19T04:16:58.295Z,1001.40
2022-08-19T04:17:58.464Z,1001.42
2022-08-19T04:18:58.283Z,1001.49
2022-08-19T04:19:58.574Z,1001.41
2022-08-19T04:20:58.574Z,1001.44
2022-08-19T04:21:58.291Z,1001.41
2022-08-19T04:22:58.252Z,1001.37
2022-08-19T04:23:58.253Z,1001.37
2022-08-19T04:24:58.252Z,1001.42
2022-08-19T04:25:58.514Z,1001.40
2022-08-19T04:26:58.616Z,1001.37
2022-08-19T04:27:58.222Z,1001.47
2022-08-19T04:28:58.212Z,1001.49
2022-08-19T04:29:58.342Z,1001.51
2022-08-19T04:30:58.251Z,1001.58
2022-08-19T04:31:58.192Z,1001.51
2022-08-19T04:32:58.191Z,1001.50
2022-08-19T04:33:58.182Z,1001.50
2022-08-19T04:35:01.489Z,1001.43
2022-08-19T04:35:58.171Z,1001.42
2022-08-19T04:36:58.171Z,1001.45
2022-08-19T04:37:58.164Z,1001.41
2022-08-19T04:38:58.150Z,1001.47
2022-08-19T04:39:58.794Z,1001.46
2022-08-19T04:40:59.191Z,1001.43
2022-08-19T04:41:58.131Z,1001.52
2022-08-19T04:42:58.120Z,1001.48
2022-08-19T04:44:01.262Z,1001.49
2022-08-19T04:44:58.432Z,1001.41
2022-08-19T04:46:01.144Z,1001.46
2022-08-19T04:46:58.095Z,1001.46
2022-08-19T04:48:26.164Z,1001.45
2022-08-19T04:48:58.669Z,1001.50
2022-08-19T04:49:59.080Z,1001.44
2022-08-19T04:50:58.069Z,1001.41
2022-08-19T04:51:58.080Z,1001.45
2022-08-19T04:52:58.051Z,1001.38
2022-08-19T04:53:58.040Z,1001.41
2022-08-19T04:54:58.198Z,1001.46
2022-08-19T04:55:58.029Z,1001.45
2022-08-19T04:56:58.019Z,1001.48
2022-08-19T04:57:58.019Z,1001.42
2022-08-19T04:58:58.007Z,1001.42
2022-08-19T04:59:58.019Z,1001.42
2022-08-19T05:00:57.992Z,1001.45
2022-08-19T05:01:58.028Z,1001.43
2022-08-19T05:02:57.978Z,1001.44
2022-08-19T05:03:57.979Z,1001.41
2022-08-19T05:04:57.978Z,1001.47
2022-08-19T05:05:57.976Z,1001.44
2022-08-19T05:07:00.847Z,1001.43
2022-08-19T05:07:58.007Z,1001.40
2022-08-19T05:08:57.938Z,1001.43
2022-08-19T05:09:59.189Z,1001.47
2022-08-19T05:10:57.938Z,1001.52
2022-08-19T05:11:57.947Z,1001.50
2022-08-19T05:12:57.908Z,1001.53
2022-08-19T05:13:57.918Z,1001.57
2022-08-19T05:14:58.165Z,1001.59
2022-08-19T05:15:57.897Z,1001.63
2022-08-19T05:17:23.805Z,1001.58
2022-08-19T05:17:57.886Z,1001.62
2022-08-19T05:18:57.875Z,1001.61
2022-08-19T05:19:57.897Z,1001.63
2022-08-19T05:20:57.874Z,1001.60
2022-08-19T05:21:57.870Z,1001.62
2022-08-19T05:22:57.877Z,1001.66
2022-08-19T05:23:57.847Z,1001.67
2022-08-19T05:25:12.236Z,1001.69
2022-08-19T05:25:57.836Z,1001.72
2022-08-19T05:26:57.846Z,1001.72
2022-08-19T05:27:57.866Z,1001.69
2022-08-19T05:28:57.868Z,1001.72
2022-08-19T05:29:57.845Z,1001.69
2022-08-19T05:30:57.885Z,1001.72
2022-08-19T05:31:57.935Z,1001.72
2022-08-19T05:32:57.779Z,1001.70
2022-08-19T05:33:57.785Z,1001.67
2022-08-19T05:34:57.786Z,1001.72
2022-08-19T05:35:57.781Z,1001.69
2022-08-19T05:36:57.774Z,1001.67
2022-08-19T05:37:59.131Z,1001.66
2022-08-19T05:38:57.739Z,1001.61
2022-08-19T05:39:57.879Z,1001.60
2022-08-19T05:40:57.993Z,1001.57
2022-08-19T05:41:57.785Z,1001.57
2022-08-19T05:42:59.665Z,1001.54
2022-08-19T05:43:57.786Z,1001.49
2022-08-19T05:44:57.745Z,1001.48
2022-08-19T05:45:57.695Z,1001.49
2022-08-19T05:46:57.839Z,1001.50
2022-08-19T05:47:57.683Z,1001.50
2022-08-19T05:48:57.661Z,1001.43
2022-08-19T05:49:57.675Z,1001.48
2022-08-19T05:50:57.648Z,1001.52
2022-08-19T05:51:57.709Z,1001.53
2022-08-19T05:52:58.173Z,1001.52
2022-08-19T05:53:57.744Z,1001.53
2022-08-19T05:54:57.716Z,1001.48
2022-08-19T05:55:57.612Z,1001.45
2022-08-19T05:56:57.724Z,1001.49
2022-08-19T05:57:57.737Z,1001.52
2022-08-19T05:58:58.410Z,1001.47
2022-08-19T05:59:58.858Z,1001.51
2022-08-19T06:00:57.584Z,1001.45
2022-08-19T06:01:57.583Z,1001.48
2022-08-19T06:02:57.639Z,1001.47
2022-08-19T06:03:57.563Z,1001.44
2022-08-19T06:04:57.611Z,1001.41
2022-08-19T06:05:57.561Z,1001.39
2022-08-19T06:06:57.922Z,1001.40
2022-08-19T06:07:57.541Z,1001.33
2022-08-19T06:08:57.942Z,1001.33
2022-08-19T06:10:00.306Z,1001.33
2022-08-19T06:10:57.512Z,1001.26
2022-08-19T06:11:57.618Z,1001.27
2022-08-19T06:12:57.499Z,1001.32
2022-08-19T06:14:00.248Z,1001.30
2022-08-19T06:15:01.216Z,1001.31
2022-08-19T06:15:57.481Z,1001.25
2022-08-19T06:16:57.480Z,1001.26
2022-08-19T06:17:57.469Z,1001.26
2022-08-19T06:18:57.451Z,1001.31
2022-08-19T06:19:57.470Z,1001.23
2022-08-19T06:20:57.473Z,1001.27
2022-08-19T06:21:57.441Z,1001.30
2022-08-19T06:22:57.445Z,1001.33
2022-08-19T06:23:57.430Z,1001.30
2022-08-19T06:24:57.427Z,1001.34
2022-08-19T06:25:57.420Z,1001.37
2022-08-19T06:27:00.804Z,1001.38
2022-08-19T06:28:14.915Z,1001.41
2022-08-19T06:28:57.397Z,1001.41
2022-08-19T06:29:57.399Z,1001.45
2022-08-19T06:30:57.397Z,1001.44
2022-08-19T06:31:57.395Z,1001.45
2022-08-19T06:32:57.381Z,1001.46
2022-08-19T06:33:57.371Z,1001.44
2022-08-19T06:34:57.341Z,1001.46
2022-08-19T06:35:57.361Z,1001.37
2022-08-19T06:36:57.548Z,1001.42
2022-08-19T06:37:57.479Z,1001.42
2022-08-19T06:38:57.329Z,1001.38
2022-08-19T06:39:57.420Z,1001.35
2022-08-19T06:40:57.329Z,1001.28
2022-08-19T06:41:58.996Z,1001.27
2022-08-19T06:42:57.554Z,1001.31
2022-08-19T06:43:57.286Z,1001.31
2022-08-19T06:44:57.278Z,1001.27
2022-08-19T06:45:57.672Z,1001.30
2022-08-19T06:46:57.270Z,1001.31
2022-08-19T06:47:57.278Z,1001.36
2022-08-19T06:48:57.248Z,1001.40
2022-08-19T06:50:01.075Z,1001.42
2022-08-19T06:50:57.288Z,1001.45
2022-08-19T06:51:57.228Z,1001.40
2022-08-19T06:52:57.229Z,1001.43
2022-08-19T06:53:57.218Z,1001.45
2022-08-19T06:54:59.737Z,1001.43
2022-08-19T06:55:57.218Z,1001.46
2022-08-19T06:56:57.203Z,1001.44
2022-08-19T06:57:57.726Z,1001.46
2022-08-19T06:58:57.202Z,1001.47
2022-08-19T06:59:57.178Z,1001.50
2022-08-19T07:00:57.198Z,1001.53
2022-08-19T07:01:57.158Z,1001.42
2022-08-19T07:03:00.891Z,1001.48
2022-08-19T07:03:57.509Z,1001.53
2022-08-19T07:04:57.147Z,1001.50
2022-08-19T07:05:57.148Z,1001.57
2022-08-19T07:06:57.128Z,1001.51
2022-08-19T07:08:01.614Z,1001.50
2022-08-19T07:08:57.118Z,1001.50
2022-08-19T07:10:00.882Z,1001.52
2022-08-19T07:10:57.118Z,1001.45
2022-08-19T07:11:57.098Z,1001.45
2022-08-19T07:12:57.138Z,1001.48
2022-08-19T07:13:57.079Z,1001.46
2022-08-19T07:14:57.080Z,1001.44
2022-08-19T07:15:57.662Z,1001.51
2022-08-19T07:16:57.067Z,1001.54
2022-08-19T07:17:57.056Z,1001.53
2022-08-19T07:18:57.057Z,1001.51
2022-08-19T07:19:57.037Z,1001.54
2022-08-19T07:20:57.305Z,1001.63
2022-08-19T07:21:57.026Z,1001.61
2022-08-19T07:22:57.038Z,1001.63
2022-08-19T07:23:57.006Z,1001.63
2022-08-19T07:24:57.014Z,1001.68
2022-08-19T07:25:57.066Z,1001.70
2022-08-19T07:26:56.999Z,1001.69
2022-08-19T07:27:57.070Z,1001.73
2022-08-19T07:28:56.984Z,1001.69
2022-08-19T07:29:57.518Z,1001.72
2022-08-19T07:30:56.977Z,1001.66
2022-08-19T07:31:56.958Z,1001.73
2022-08-19T07:32:56.967Z,1001.76
2022-08-19T07:33:56.949Z,1001.73
2022-08-19T07:34:57.222Z,1001.72
2022-08-19T07:35:56.946Z,1001.76
2022-08-19T07:36:56.938Z,1001.75
2022-08-19T07:37:56.917Z,1001.79
2022-08-19T07:38:56.988Z,1001.79
2022-08-19T07:39:56.938Z,1001.78
2022-08-19T07:40:56.955Z,1001.80
2022-08-19T07:45:27.509Z,1001.76
2022-08-19T07:46:27.442Z,1001.80
2022-08-19T07:47:50.390Z,1001.75
2022-08-19T07:48:27.410Z,1001.75
2022-08-19T07:49:27.411Z,1001.74
2022-08-19T07:50:27.440Z,1001.74
2022-08-19T07:51:28.711Z,1001.73
2022-08-19T07:52:27.390Z,1001.80
2022-08-19T07:53:27.402Z,1001.81
2022-08-19T07:54:27.380Z,1001.82
2022-08-19T07:55:41.310Z,1001.84
2022-08-19T07:56:27.371Z,1001.85
2022-08-19T07:57:27.367Z,1001.91
2022-08-19T07:59:53.337Z,1001.90
2022-08-19T08:00:53.316Z,1001.83
2022-08-19T08:01:53.306Z,1001.88
2022-08-19T08:02:55.459Z,1001.94
2022-08-19T08:03:53.277Z,1001.84
2022-08-19T08:04:53.266Z,1001.94
2022-08-19T08:05:53.286Z,1001.95
2022-08-19T08:06:53.255Z,1001.98
2022-08-19T08:07:53.259Z,1002.01
2022-08-19T08:08:53.259Z,1002.01
2022-08-19T08:10:54.713Z,1001.97
2022-08-19T08:11:53.248Z,1001.89
2022-08-19T08:13:09.575Z,1001.91
2022-08-19T08:14:01.495Z,1001.85
2022-08-19T08:14:55.992Z,1001.82
2022-08-19T08:15:53.229Z,1001.80
2022-08-19T08:16:53.210Z,1001.80
2022-08-19T08:17:53.208Z,1001.77
2022-08-19T08:18:53.408Z,1001.84
2022-08-19T08:19:53.192Z,1001.83
2022-08-19T08:20:53.210Z,1001.77
2022-08-19T08:21:53.176Z,1001.80
2022-08-19T08:22:53.282Z,1001.82
2022-08-19T08:23:54.486Z,1001.85
2022-08-19T08:24:53.140Z,1001.88
2022-08-19T08:25:53.199Z,1001.84
2022-08-19T08:26:57.668Z,1001.93
2022-08-19T08:27:53.713Z,1001.91
2022-08-19T08:28:53.128Z,1001.93
2022-08-19T08:29:53.131Z,1001.92
2022-08-19T08:30:53.136Z,1001.92
2022-08-19T08:31:58.494Z,1001.90
2022-08-19T08:32:53.108Z,1001.87
2022-08-19T08:33:53.109Z,1001.93
2022-08-19T08:34:53.078Z,1001.86
2022-08-19T08:35:53.101Z,1001.94
2022-08-19T08:36:53.099Z,1001.94
2022-08-19T08:37:53.258Z,1001.92
2022-08-19T08:39:53.084Z,1001.92
2022-08-19T08:40:53.041Z,1001.98
2022-08-19T08:41:53.058Z,1001.93
2022-08-19T08:42:53.164Z,1001.96
2022-08-19T08:43:53.198Z,1002.01
2022-08-19T08:45:53.494Z,1002.03
2022-08-19T08:46:53.011Z,1001.98
2022-08-19T08:47:53.024Z,1001.99
2022-08-19T08:48:52.978Z,1001.98
2022-08-19T08:49:52.969Z,1002.02
2022-08-19T08:50:52.979Z,1001.97
2022-08-19T08:51:59.730Z,1001.96
2022-08-19T08:52:53.116Z,1001.90
2022-08-19T08:53:56.203Z,1001.93
2022-08-19T08:54:55.368Z,1001.90
2022-08-19T08:55:52.935Z,1001.97
2022-08-19T08:56:52.938Z,1001.93
2022-08-19T08:57:52.930Z,1001.95
2022-08-19T08:58:54.729Z,1001.98
2022-08-19T08:59:52.900Z,1001.93
2022-08-19T09:00:52.890Z,1001.92
2022-08-19T09:01:52.963Z,1001.96
2022-08-19T09:02:52.888Z,1001.98
2022-08-19T09:03:52.898Z,1001.97
2022-08-19T09:04:52.878Z,1001.99
2022-08-19T09:05:52.868Z,1001.99
2022-08-19T09:06:52.878Z,1002.00
2022-08-19T09:07:52.848Z,1002.01
2022-08-19T09:08:52.838Z,1002.00
2022-08-19T09:09:52.838Z,1001.95
2022-08-19T09:10:55.261Z,1002.00
2022-08-19T09:11:52.837Z,1002.02
2022-08-19T09:12:52.807Z,1001.95
2022-08-19T09:13:53.187Z,1001.94
2022-08-19T09:14:52.828Z,1001.94
2022-08-19T09:15:52.798Z,1001.91
2022-08-19T09:16:52.861Z,1002.03
2022-08-19T09:17:52.945Z,1001.95
2022-08-19T09:18:52.769Z,1001.99
2022-08-19T09:19:52.780Z,1001.96
2022-08-19T09:20:52.757Z,1001.98
2022-08-19T09:21:52.946Z,1002.00
2022-08-19T09:22:52.767Z,1001.99
2022-08-19T09:23:52.779Z,1001.94
2022-08-19T09:24:52.737Z,1001.93
2022-08-19T09:25:52.739Z,1001.94
2022-08-19T09:26:53.062Z,1001.93
2022-08-19T09:27:52.748Z,1001.92
2022-08-19T09:28:52.707Z,1001.94
2022-08-19T09:29:52.706Z,1001.92
2022-08-19T09:30:52.914Z,1001.97
2022-08-19T09:31:52.720Z,1001.92
2022-08-19T09:32:52.918Z,1002.02
2022-08-19T09:33:52.687Z,1001.97
2022-08-19T09:34:52.746Z,1001.94
2022-08-19T09:35:53.512Z,1001.95
2022-08-19T09:36:52.646Z,1001.99
2022-08-19T09:37:52.668Z,1001.98
2022-08-19T09:38:52.635Z,1001.97
2022-08-19T09:39:52.698Z,1001.99
2022-08-19T09:40:52.618Z,1001.94
2022-08-19T09:41:52.619Z,1001.92
2022-08-19T09:42:52.757Z,1001.96
2022-08-19T09:43:52.621Z,1001.82
2022-08-19T09:44:52.588Z,1001.85
2022-08-19T09:45:52.587Z,1001.79
2022-08-19T09:46:52.579Z,1001.88
2022-08-19T09:47:54.956Z,1001.81
2022-08-19T09:48:52.569Z,1001.95
2022-08-19T09:49:52.577Z,1001.86
2022-08-19T09:50:52.735Z,1001.89
2022-08-19T09:51:52.557Z,1001.93
2022-08-19T09:52:55.650Z,1001.95
2022-08-19T09:53:52.853Z,1001.90
2022-08-19T09:54:52.526Z,1001.94
2022-08-19T09:55:52.518Z,1001.90
2022-08-19T09:56:52.507Z,1001.92
2022-08-19T09:57:52.625Z,1001.89
2022-08-19T09:58:52.537Z,1001.91
2022-08-19T09:59:52.487Z,1001.81
2022-08-19T10:00:52.487Z,1001.76
2022-08-19T10:01:52.570Z,1001.85
2022-08-19T10:02:53.557Z,1001.74
2022-08-19T10:03:52.508Z,1001.80
2022-08-19T10:04:52.519Z,1001.82
2022-08-19T10:05:55.257Z,1001.83
2022-08-19T10:06:53.680Z,1001.84
2022-08-19T10:07:52.503Z,1001.88
2022-08-19T10:08:52.428Z,1001.89
2022-08-19T10:09:52.425Z,1001.85
2022-08-19T10:10:52.481Z,1001.84
2022-08-19T10:11:54.611Z,1001.81
2022-08-19T10:12:52.407Z,1001.80
2022-08-19T10:13:52.408Z,1001.86
2022-08-19T10:14:52.398Z,1001.84
2022-08-19T10:15:52.379Z,1001.88
2022-08-19T10:16:52.427Z,1001.92
2022-08-19T10:17:55.298Z,1001.93
2022-08-19T10:18:52.370Z,1001.86
2022-08-19T10:19:55.959Z,1001.84
2022-08-19T10:20:52.756Z,1001.82
2022-08-19T10:21:52.339Z,1001.81
2022-08-19T10:22:52.378Z,1001.79
2022-08-19T10:23:52.329Z,1001.80
2022-08-19T10:24:52.348Z,1001.83
2022-08-19T10:25:52.317Z,1001.77
2022-08-19T10:26:57.247Z,1001.79
2022-08-19T10:27:52.333Z,1001.72
2022-08-19T10:28:52.834Z,1001.79
2022-08-19T10:29:52.277Z,1001.72
2022-08-19T10:30:52.277Z,1001.72
2022-08-19T10:31:59.942Z,1001.76
2022-08-19T10:32:52.278Z,1001.75
2022-08-19T10:33:53.456Z,1001.73
2022-08-19T10:34:52.246Z,1001.70
2022-08-19T10:35:56.799Z,1001.65
2022-08-19T10:36:56.464Z,1001.64
2022-08-19T10:37:56.996Z,1001.64
2022-08-19T10:38:56.210Z,1001.65
2022-08-19T10:39:52.288Z,1001.64
2022-08-19T10:40:52.208Z,1001.60
2022-08-19T10:41:52.198Z,1001.67
2022-08-19T10:42:52.205Z,1001.64
2022-08-19T10:43:52.187Z,1001.59
2022-08-19T10:44:52.265Z,1001.54
2022-08-19T10:45:52.595Z,1001.56
2022-08-19T10:46:52.167Z,1001.52
2022-08-19T10:47:52.167Z,1001.56
2022-08-19T10:48:52.155Z,1001.60
2022-08-19T10:49:52.188Z,1001.72
2022-08-19T10:50:52.157Z,1001.65
2022-08-19T10:51:52.127Z,1001.64
2022-08-19T10:52:52.139Z,1001.67
2022-08-19T10:53:52.128Z,1001.57
2022-08-19T10:54:52.117Z,1001.61
2022-08-19T10:55:52.106Z,1001.60
2022-08-19T10:56:52.101Z,1001.58
2022-08-19T10:58:02.207Z,1001.54
2022-08-19T10:58:52.086Z,1001.71
2022-08-19T10:59:52.076Z,1001.53
2022-08-19T11:00:52.153Z,1001.44
2022-08-19T11:01:52.060Z,1001.42
2022-08-19T11:02:52.155Z,1001.47
2022-08-19T11:03:52.057Z,1001.45
2022-08-19T11:04:52.047Z,1001.69
2022-08-19T11:05:52.038Z,1001.54
2022-08-19T11:06:52.027Z,1001.65
2022-08-19T11:07:52.384Z,1001.66
2022-08-19T11:08:52.024Z,1001.71
2022-08-19T11:09:52.009Z,1001.73
2022-08-19T11:10:51.998Z,1001.63
2022-08-19T11:11:51.990Z,1001.69
2022-08-19T11:12:52.008Z,1001.56
2022-08-19T11:13:51.988Z,1001.56
2022-08-19T11:14:51.998Z,1001.31
2022-08-19T11:15:51.968Z,1001.51
2022-08-19T11:16:51.968Z,1001.51
2022-08-19T11:17:51.966Z,1001.54
2022-08-19T11:18:51.955Z,1001.55
2022-08-19T11:19:51.948Z,1001.52
2022-08-19T11:20:51.938Z,1001.52
2022-08-19T11:21:51.937Z,1001.48
2022-08-19T11:22:51.940Z,1001.50
2022-08-19T11:23:51.929Z,1001.46
2022-08-19T11:24:51.919Z,1001.51
2022-08-19T11:25:51.904Z,1001.15
2022-08-19T11:26:51.899Z,1001.18
2022-08-19T11:27:51.899Z,1001.19
2022-08-19T11:28:51.880Z,1001.16
2022-08-19T11:29:51.877Z,1001.17
2022-08-19T11:30:51.868Z,1001.42
2022-08-19T11:31:51.858Z,1001.40
2022-08-19T11:32:51.869Z,1001.36
2022-08-19T11:33:51.869Z,1001.37
2022-08-19T11:34:51.849Z,1001.35
2022-08-19T11:35:51.828Z,1001.35
2022-08-19T11:36:51.831Z,1001.30
2022-08-19T11:37:51.880Z,1001.29
2022-08-19T11:38:51.818Z,1001.25
2022-08-19T11:39:53.583Z,1001.27
2022-08-19T11:40:51.809Z,1001.31
2022-08-19T11:41:51.789Z,1001.28
2022-08-19T11:42:51.807Z,1001.20
2022-08-19T11:43:51.799Z,1001.15
2022-08-19T11:44:51.780Z,1001.16
2022-08-19T11:45:52.550Z,1001.08
2022-08-19T11:46:52.099Z,1001.06
2022-08-19T11:47:51.879Z,1001.00
2022-08-19T11:48:51.760Z,1000.68
2022-08-19T11:49:51.769Z,1001.06
2022-08-19T11:50:51.757Z,1000.83
2022-08-19T11:51:51.738Z,1000.98
2022-08-19T11:52:51.779Z,1001.21
2022-08-19T11:53:51.734Z,1001.15
2022-08-19T11:54:51.880Z,1000.86
2022-08-19T11:55:51.720Z,1000.97
2022-08-19T11:56:51.713Z,1001.17
2022-08-19T11:57:51.710Z,1001.15
2022-08-19T11:58:51.697Z,1001.12
2022-08-19T11:59:51.690Z,1001.06
2022-08-19T12:00:51.682Z,1001.04
2022-08-19T12:01:51.682Z,1001.02
2022-08-19T12:02:51.670Z,1000.98
2022-08-19T12:03:51.774Z,1001.03
2022-08-19T12:04:51.661Z,1000.76
2022-08-19T12:05:51.640Z,1000.98
2022-08-19T12:06:51.652Z,1001.02
2022-08-19T12:07:51.632Z,1000.82
2022-08-19T12:08:51.640Z,1000.84
2022-08-19T12:09:51.619Z,1000.84
2022-08-19T12:10:51.611Z,1000.95
2022-08-19T12:11:51.609Z,1001.04
2022-08-19T12:12:58.920Z,1001.01